Time;durP1;ratioP1;P1;durP2;ratioP2;P2;SDS_P1;SDS_P2;PMS_P1;PMS_P2;Temp;Humidity;BMP_temperature;BMP_pressure;BME280_temperature;BME280_humidity;BME280_pressure;Samples;Min_cycle;Max_cycle;Signal;HPM_P1;HPM_P2
2021/08/02 00:00:51;;;;;;;9.52;2.63;;;;;;;;;;6270251;22;20122;-81
2021/08/02 00:03:19;;;;;;;11.05;4.13;;;;;;;;;;6300253;22;20027;-84
2021/08/02 00:05:47;;;;;;;16.10;3.10;;;;;;;;;;6300180;22;20035;-82
2021/08/02 00:08:25;;;;;;;10.82;3.13;;;;;;;;;;6300976;22;20030;-82
2021/08/02 00:10:53;;;;;;;13.55;2.97;;;;;;;;;;6298021;22;20068;-82
2021/08/02 00:13:34;;;;;;;13.85;3.10;;;;;;;;;;6256486;22;20027;-83
2021/08/02 00:16:05;;;;;;;7.05;3.15;;;;;;;;;;6255551;22;20024;-82
2021/08/02 00:18:32;;;;;;;7.35;3.63;;;;;;;;;;6282461;22;20031;-83
2021/08/02 00:21:01;;;;;;;10.95;3.20;;;;;;;;;;6255227;22;20026;-83
2021/08/02 00:23:35;;;;;;;6.05;2.83;;;;;;;;;;6279482;22;20095;-82
2021/08/02 00:26:04;;;;;;;10.77;3.00;;;;;;;;;;6254962;22;20190;-82
2021/08/02 00:28:32;;;;;;;7.78;3.00;;;;;;;;;;6270697;22;20019;-83
2021/08/02 00:30:59;;;;;;;10.45;3.28;;;;;;;;;;6297631;22;20027;-82
2021/08/02 00:33:29;;;;;;;11.38;2.88;;;;;;;;;;6297463;22;20012;-82
2021/08/02 00:36:14;;;;;;;8.52;3.45;;;;;;;;;;6289762;22;20035;-82
2021/08/02 00:38:51;;;;;;;6.45;2.80;;;;;;;;;;6255013;22;20035;-82
2021/08/02 00:41:20;;;;;;;9.70;2.75;;;;;;;;;;6254275;22;20032;-82
2021/08/02 00:43:59;;;;;;;12.82;3.00;;;;;;;;;;6279029;22;20027;-82
2021/08/02 00:46:29;;;;;;;9.45;3.53;;;;;;;;;;6255457;22;20097;-83
2021/08/02 00:49:02;;;;;;;11.32;3.53;;;;;;;;;;6282427;22;20074;-82
2021/08/02 00:51:37;;;;;;;8.55;3.38;;;;;;;;;;6255224;22;20034;-82
2021/08/02 00:54:06;;;;;;;7.35;3.00;;;;;;;;;;6280960;22;20082;-83
2021/08/02 00:56:34;;;;;;;8.13;2.72;;;;;;;;;;6253081;22;20024;-83
2021/08/02 00:59:04;;;;;;;13.65;3.30;;;;;;;;;;6254675;22;20067;-83
2021/08/02 01:01:35;;;;;;;8.60;2.65;;;;;;;;;;6254922;22;20037;-83
2021/08/02 01:04:02;;;;;;;10.52;3.65;;;;;;;;;;6255362;22;20489;-83
2021/08/02 01:06:29;;;;;;;10.35;2.70;;;;;;;;;;6283225;22;20072;-83
2021/08/02 01:09:00;;;;;;;5.93;2.97;;;;;;;;;;6257960;22;20023;-82
2021/08/02 01:11:27;;;;;;;8.57;2.70;;;;;;;;;;6281325;22;20023;-81
2021/08/02 01:13:55;;;;;;;13.30;3.17;;;;;;;;;;6281644;22;20028;-83
2021/08/02 01:16:22;;;;;;;8.93;3.33;;;;;;;;;;6253476;22;20031;-83
2021/08/02 01:18:49;;;;;;;16.52;3.75;;;;;;;;;;6255694;22;20030;-83
2021/08/02 01:21:19;;;;;;;9.98;3.30;;;;;;;;;;6243329;22;20063;-83
2021/08/02 01:23:47;;;;;;;8.70;3.33;;;;;;;;;;6256942;22;20031;-85
2021/08/02 01:26:32;;;;;;;13.48;3.03;;;;;;;;;;6282921;22;20035;-83
2021/08/02 01:29:17;;;;;;;12.52;3.30;;;;;;;;;;6282276;22;20076;-82
2021/08/02 01:31:44;;;;;;;5.38;3.38;;;;;;;;;;6254853;22;20023;-82
2021/08/02 01:34:13;;;;;;;21.85;4.20;;;;;;;;;;6250878;23;20023;-82
2021/08/02 01:36:40;;;;;;;9.73;3.20;;;;;;;;;;6223599;23;20016;-82
2021/08/02 01:39:07;;;;;;;12.02;3.65;;;;;;;;;;6223714;23;20031;-82
2021/08/02 01:41:33;;;;;;;12.90;4.18;;;;;;;;;;6251023;23;20088;-82
2021/08/02 01:44:00;;;;;;;10.65;3.25;;;;;;;;;;6224700;23;20020;-82
2021/08/02 01:46:33;;;;;;;9.98;3.10;;;;;;;;;;6251088;23;20025;-82
2021/08/02 01:49:06;;;;;;;10.13;3.20;;;;;;;;;;6224407;23;20056;-82
2021/08/02 01:51:39;;;;;;;10.00;2.85;;;;;;;;;;6251192;23;20032;-82
2021/08/02 01:54:26;;;;;;;15.25;3.50;;;;;;;;;;6225894;23;20028;-82
2021/08/02 01:57:05;;;;;;;10.10;3.03;;;;;;;;;;6248711;23;20027;-82
2021/08/02 01:59:35;;;;;;;11.82;3.33;;;;;;;;;;6251102;23;20461;-81
2021/08/02 02:02:13;;;;;;;7.28;3.08;;;;;;;;;;6233509;23;20071;-81
2021/08/02 02:04:44;;;;;;;10.73;3.55;;;;;;;;;;6257387;23;20032;-82
2021/08/02 02:07:11;;;;;;;9.82;2.95;;;;;;;;;;6268594;23;20029;-82
2021/08/02 02:09:39;;;;;;;12.85;2.88;;;;;;;;;;6240998;23;20080;-82
2021/08/02 02:12:06;;;;;;;10.43;3.65;;;;;;;;;;6231080;23;20103;-82
2021/08/02 02:14:35;;;;;;;7.82;3.35;;;;;;;;;;6252368;23;20268;-82
2021/08/02 02:17:02;;;;;;;7.82;2.75;;;;;;;;;;6262623;23;20024;-81
2021/08/02 02:19:33;;;;;;;9.70;2.78;;;;;;;;;;6242099;23;20098;-82
2021/08/02 02:22:00;;;;;;;6.10;2.67;;;;;;;;;;6258203;23;20035;-83
2021/08/02 02:24:27;;;;;;;11.88;3.22;;;;;;;;;;6256330;23;20028;-83
2021/08/02 02:26:55;;;;;;;10.43;3.33;;;;;;;;;;6227891;23;20062;-83
2021/08/02 02:29:26;;;;;;;17.83;3.58;;;;;;;;;;6251725;23;20111;-82
2021/08/02 02:31:53;;;;;;;9.90;3.20;;;;;;;;;;6251405;22;20341;-82
2021/08/02 02:34:20;;;;;;;10.05;3.30;;;;;;;;;;6251334;23;20032;-82
2021/08/02 02:36:47;;;;;;;16.77;3.80;;;;;;;;;;6225050;23;20028;-83
2021/08/02 02:39:15;;;;;;;15.48;3.53;;;;;;;;;;6251338;23;20034;-82
2021/08/02 02:41:42;;;;;;;12.13;3.55;;;;;;;;;;6251165;23;20317;-82
2021/08/02 02:44:09;;;;;;;13.05;4.25;;;;;;;;;;6224720;23;20032;-82
2021/08/02 02:46:36;;;;;;;14.90;3.70;;;;;;;;;;6250751;23;20326;-82
2021/08/02 02:49:03;;;;;;;14.55;3.65;;;;;;;;;;6232763;22;20093;-83
2021/08/02 02:51:30;;;;;;;12.80;3.28;;;;;;;;;;6244557;22;20190;-82
2021/08/02 02:53:58;;;;;;;9.93;3.58;;;;;;;;;;6234227;22;20373;-83
2021/08/02 02:56:25;;;;;;;12.40;2.97;;;;;;;;;;6226101;23;20051;-82
2021/08/02 02:58:52;;;;;;;6.07;3.10;;;;;;;;;;6259020;23;20024;-82
2021/08/02 03:01:20;;;;;;;10.63;3.38;;;;;;;;;;6235876;23;20024;-83
2021/08/02 03:03:50;;;;;;;10.52;3.17;;;;;;;;;;6236141;23;20406;-82
2021/08/02 03:06:20;;;;;;;9.32;3.55;;;;;;;;;;6262961;23;20110;-83
2021/08/02 03:08:47;;;;;;;12.82;3.28;;;;;;;;;;6266170;23;20076;-83
2021/08/02 03:11:15;;;;;;;10.48;3.60;;;;;;;;;;6238490;23;20031;-82
2021/08/02 03:13:42;;;;;;;8.32;3.38;;;;;;;;;;6238003;23;20031;-81
2021/08/02 03:16:09;;;;;;;8.98;3.15;;;;;;;;;;6237495;23;20071;-82
2021/08/02 03:18:36;;;;;;;11.23;3.30;;;;;;;;;;6226216;23;20031;-82
2021/08/02 03:21:03;;;;;;;12.48;3.35;;;;;;;;;;6250385;23;20034;-82
2021/08/02 03:23:35;;;;;;;7.90;2.90;;;;;;;;;;6223808;23;20031;-82
2021/08/02 03:26:28;;;;;;;11.70;3.15;;;;;;;;;;6253584;23;20028;-83
2021/08/02 03:28:54;;;;;;;8.45;3.58;;;;;;;;;;6221262;23;20028;-83
2021/08/02 03:31:25;;;;;;;10.43;3.33;;;;;;;;;;6223380;23;20047;-81
2021/08/02 03:33:53;;;;;;;12.80;3.05;;;;;;;;;;6273870;22;20408;-83
2021/08/02 03:36:20;;;;;;;15.02;3.50;;;;;;;;;;6279917;22;20394;-82
2021/08/02 03:38:49;;;;;;;13.88;3.22;;;;;;;;;;6280194;22;20023;-82
2021/08/02 03:41:16;;;;;;;10.30;4.03;;;;;;;;;;6251693;22;20065;-82
2021/08/02 03:43:43;;;;;;;17.55;3.58;;;;;;;;;;6252743;22;20408;-83
2021/08/02 03:46:10;;;;;;;14.23;3.53;;;;;;;;;;6280592;22;20038;-82
2021/08/02 03:48:37;;;;;;;8.55;2.80;;;;;;;;;;6279090;22;20062;-83
2021/08/02 03:51:06;;;;;;;13.00;3.50;;;;;;;;;;6251882;22;20073;-82
2021/08/02 03:53:40;;;;;;;9.27;3.00;;;;;;;;;;6250533;22;20024;-83
2021/08/02 03:56:07;;;;;;;6.95;3.30;;;;;;;;;;6252137;22;20339;-82
2021/08/02 03:58:34;;;;;;;8.18;2.95;;;;;;;;;;6277464;22;20268;-83
2021/08/02 04:01:04;;;;;;;10.05;3.22;;;;;;;;;;6251371;22;20027;-82
2021/08/02 04:03:31;;;;;;;10.68;3.58;;;;;;;;;;6251323;22;20317;-84
2021/08/02 04:05:59;;;;;;;9.02;3.00;;;;;;;;;;6278263;22;20042;-82
2021/08/02 04:08:26;;;;;;;24.20;4.05;;;;;;;;;;6279387;22;20027;-82
2021/08/02 04:10:53;;;;;;;12.55;3.20;;;;;;;;;;6277871;22;20036;-82
2021/08/02 04:13:20;;;;;;;8.30;3.00;;;;;;;;;;6278159;22;20076;-82
2021/08/02 04:15:50;;;;;;;9.48;3.20;;;;;;;;;;6279081;22;20033;-82
2021/08/02 04:18:23;;;;;;;12.40;3.40;;;;;;;;;;6253098;22;20367;-83
2021/08/02 04:20:51;;;;;;;8.63;3.20;;;;;;;;;;6251690;22;20047;-82
2021/08/02 04:23:18;;;;;;;10.18;3.90;;;;;;;;;;6251429;22;20118;-82
2021/08/02 04:25:45;;;;;;;11.90;2.95;;;;;;;;;;6277916;22;20024;-82
2021/08/02 04:28:29;;;;;;;12.18;2.88;;;;;;;;;;6250658;22;20085;-82
2021/08/02 04:30:56;;;;;;;10.68;2.75;;;;;;;;;;6251741;22;20035;-82
2021/08/02 04:33:23;;;;;;;8.27;2.63;;;;;;;;;;6276460;22;20118;-82
2021/08/02 04:35:50;;;;;;;14.27;3.28;;;;;;;;;;6277025;22;20024;-82
2021/08/02 04:38:17;;;;;;;11.80;3.80;;;;;;;;;;6251105;22;20313;-82
2021/08/02 04:40:43;;;;;;;9.73;3.67;;;;;;;;;;6254233;22;20034;-82
2021/08/02 04:43:17;;;;;;;12.55;3.03;;;;;;;;;;6251126;22;20032;-82
2021/08/02 04:45:43;;;;;;;13.88;3.05;;;;;;;;;;6276833;22;20174;-82
2021/08/02 04:48:10;;;;;;;8.55;3.00;;;;;;;;;;6276740;22;20037;-82
2021/08/02 04:50:38;;;;;;;10.98;3.10;;;;;;;;;;6277356;22;20029;-83
2021/08/02 04:53:04;;;;;;;14.65;2.78;;;;;;;;;;6248175;22;20020;-83
2021/08/02 04:55:31;;;;;;;10.70;2.53;;;;;;;;;;6249395;22;20023;-83
2021/08/02 04:57:58;;;;;;;5.47;2.40;;;;;;;;;;6275434;22;20390;-83
2021/08/02 05:00:32;;;;;;;15.35;3.15;;;;;;;;;;6248933;22;20028;-82
2021/08/02 05:03:01;;;;;;;9.15;2.20;;;;;;;;;;6276220;22;20074;-83
2021/08/02 05:05:28;;;;;;;7.45;2.60;;;;;;;;;;6248857;22;20464;-83
2021/08/02 05:07:55;;;;;;;9.55;2.10;;;;;;;;;;6275521;22;20051;-83
2021/08/02 05:10:21;;;;;;;7.25;2.22;;;;;;;;;;6254357;22;20062;-83
2021/08/02 05:12:51;;;;;;;21.17;3.20;;;;;;;;;;6293449;22;20047;-83
2021/08/02 05:15:18;;;;;;;7.45;2.58;;;;;;;;;;6290063;22;20019;-83
2021/08/02 05:17:45;;;;;;;7.45;2.40;;;;;;;;;;6278614;22;20038;-83
2021/08/02 05:20:11;;;;;;;13.43;2.85;;;;;;;;;;6257473;22;20024;-82
2021/08/02 05:22:38;;;;;;;20.67;2.63;;;;;;;;;;6262033;22;20086;-83
2021/08/02 05:25:06;;;;;;;35.38;3.17;;;;;;;;;;6289250;22;20073;-83
2021/08/02 05:27:32;;;;;;;11.38;2.47;;;;;;;;;;6276073;22;20026;-83
2021/08/02 05:29:59;;;;;;;7.57;2.22;;;;;;;;;;6275755;22;20030;-82
2021/08/02 05:32:29;;;;;;;6.10;2.60;;;;;;;;;;6249121;22;20024;-82
2021/08/02 05:34:56;;;;;;;15.80;2.55;;;;;;;;;;6275304;22;20071;-82
2021/08/02 05:37:22;;;;;;;8.43;2.28;;;;;;;;;;6273730;22;20102;-82
2021/08/02 05:39:49;;;;;;;9.80;2.38;;;;;;;;;;6273545;22;20030;-82
2021/08/02 05:42:16;;;;;;;6.80;2.05;;;;;;;;;;6271530;22;20037;-83
2021/08/02 05:44:42;;;;;;;5.45;2.30;;;;;;;;;;6246811;22;20024;-82
2021/08/02 05:47:25;;;;;;;6.72;2.25;;;;;;;;;;6247356;22;20062;-82
2021/08/02 05:49:52;;;;;;;5.40;1.85;;;;;;;;;;6273218;22;20569;-83
2021/08/02 05:52:19;;;;;;;8.20;1.85;;;;;;;;;;6248036;22;20035;-83
2021/08/02 05:54:46;;;;;;;11.20;2.08;;;;;;;;;;6273215;22;20197;-82
2021/08/02 05:57:12;;;;;;;7.32;1.50;;;;;;;;;;6248049;22;20313;-82
2021/08/02 05:59:40;;;;;;;9.23;1.90;;;;;;;;;;6276622;22;20115;-84
2021/08/02 06:02:11;;;;;;;6.07;1.83;;;;;;;;;;6251582;22;20061;-83
2021/08/02 06:04:37;;;;;;;8.23;1.85;;;;;;;;;;6260559;22;20102;-81
2021/08/02 06:07:04;;;;;;;12.00;2.03;;;;;;;;;;6293191;22;20043;-82
2021/08/02 06:09:31;;;;;;;11.77;2.40;;;;;;;;;;6259049;22;20126;-85
2021/08/02 06:12:01;;;;;;;9.43;1.67;;;;;;;;;;6277408;22;20024;-84
2021/08/02 06:14:28;;;;;;;8.93;2.10;;;;;;;;;;6251171;22;20115;-83
2021/08/02 06:16:57;;;;;;;9.00;1.77;;;;;;;;;;6272972;22;20071;-84
2021/08/02 06:19:24;;;;;;;9.52;1.85;;;;;;;;;;6275832;22;20051;-83
2021/08/02 06:21:51;;;;;;;7.75;1.83;;;;;;;;;;6248078;22;20066;-82
2021/08/02 06:24:17;;;;;;;9.25;1.75;;;;;;;;;;6275687;22;20028;-82
2021/08/02 06:26:44;;;;;;;6.45;1.38;;;;;;;;;;6248990;22;20027;-83
2021/08/02 06:29:11;;;;;;;8.15;1.67;;;;;;;;;;6250928;22;20031;-82
2021/08/02 06:31:37;;;;;;;5.65;1.33;;;;;;;;;;6250058;22;20103;-83
2021/08/02 06:34:07;;;;;;;3.92;1.23;;;;;;;;;;6248600;22;20389;-82
2021/08/02 06:36:34;;;;;;;8.27;1.63;;;;;;;;;;6275929;22;20113;-83
2021/08/02 06:39:01;;;;;;;12.10;1.90;;;;;;;;;;6274796;22;20188;-83
2021/08/02 06:41:28;;;;;;;12.43;1.70;;;;;;;;;;6250709;22;20038;-83
2021/08/02 06:43:54;;;;;;;8.05;1.83;;;;;;;;;;6277986;22;20024;-84
2021/08/02 06:46:21;;;;;;;4.75;1.13;;;;;;;;;;6273693;22;20085;-84
2021/08/02 06:48:47;;;;;;;5.93;1.58;;;;;;;;;;6277774;22;20314;-84
2021/08/02 06:51:14;;;;;;;8.13;1.48;;;;;;;;;;6279818;22;20020;-83
2021/08/02 06:53:41;;;;;;;8.68;1.50;;;;;;;;;;6277692;22;20327;-84
2021/08/02 06:56:07;;;;;;;5.00;1.38;;;;;;;;;;6247625;22;20050;-84
2021/08/02 06:58:38;;;;;;;7.57;1.60;;;;;;;;;;6248311;22;20451;-84
2021/08/02 07:01:04;;;;;;;4.88;1.50;;;;;;;;;;6245516;22;20154;-84
2021/08/02 07:03:31;;;;;;;6.13;1.15;;;;;;;;;;6246228;22;20269;-84
2021/08/02 07:06:08;;;;;;;8.30;1.50;;;;;;;;;;6275873;22;20023;-83
2021/08/02 07:08:38;;;;;;;5.90;1.23;;;;;;;;;;6247695;22;20031;-83
2021/08/02 07:11:06;;;;;;;9.35;1.45;;;;;;;;;;6273090;22;20098;-83
2021/08/02 07:13:33;;;;;;;4.05;1.50;;;;;;;;;;6276527;22;20023;-83
2021/08/02 07:16:00;;;;;;;4.20;0.90;;;;;;;;;;6279686;22;20034;-84
2021/08/02 07:18:27;;;;;;;5.82;1.20;;;;;;;;;;6249451;22;20275;-83
2021/08/02 07:20:54;;;;;;;9.48;1.40;;;;;;;;;;6279624;22;20038;-84
2021/08/02 07:23:21;;;;;;;4.07;0.90;;;;;;;;;;6279314;22;20039;-84
2021/08/02 07:25:48;;;;;;;5.47;1.65;;;;;;;;;;6282125;22;20075;-84
2021/08/02 07:28:18;;;;;;;11.98;2.00;;;;;;;;;;6255497;22;20085;-83
2021/08/02 07:30:45;;;;;;;5.93;1.52;;;;;;;;;;6251699;22;20011;-85
2021/08/02 07:33:14;;;;;;;2.65;0.98;;;;;;;;;;6278495;22;20063;-85
2021/08/02 07:35:47;;;;;;;6.50;1.30;;;;;;;;;;6277751;22;20097;-84
2021/08/02 07:38:14;;;;;;;4.68;1.08;;;;;;;;;;6275969;22;20023;-84
2021/08/02 07:40:44;;;;;;;5.57;1.15;;;;;;;;;;6280505;22;20031;-85
2021/08/02 07:43:13;;;;;;;4.78;1.27;;;;;;;;;;6279925;22;20028;-84
2021/08/02 07:45:40;;;;;;;9.27;1.30;;;;;;;;;;6289088;22;20085;-84
2021/08/02 07:48:07;;;;;;;5.30;1.00;;;;;;;;;;6262617;22;20064;-84
2021/08/02 07:50:34;;;;;;;6.32;1.17;;;;;;;;;;6290578;22;20051;-84
2021/08/02 07:53:01;;;;;;;6.60;1.08;;;;;;;;;;6290373;22;20019;-84
2021/08/02 07:55:31;;;;;;;3.83;0.82;;;;;;;;;;6289563;22;20019;-85
2021/08/02 07:57:58;;;;;;;8.45;1.17;;;;;;;;;;6254986;22;20061;-85
2021/08/02 08:00:25;;;;;;;6.70;1.30;;;;;;;;;;6250902;22;20081;-85
2021/08/02 08:02:52;;;;;;;5.13;1.00;;;;;;;;;;6251591;22;20034;-86
2021/08/02 08:05:18;;;;;;;7.00;1.38;;;;;;;;;;6279452;22;20019;-84
2021/08/02 08:07:49;;;;;;;8.70;1.17;;;;;;;;;;6279121;22;20095;-84
2021/08/02 08:10:17;;;;;;;9.48;1.20;;;;;;;;;;6265815;22;20170;-85
2021/08/02 08:12:44;;;;;;;5.90;0.90;;;;;;;;;;6286126;22;20059;-88
2021/08/02 08:15:11;;;;;;;6.75;1.00;;;;;;;;;;6267547;22;20085;-84
2021/08/02 08:17:38;;;;;;;7.32;0.95;;;;;;;;;;6291268;22;20068;-85
2021/08/02 08:20:06;;;;;;;4.80;0.93;;;;;;;;;;6261646;22;20035;-84
2021/08/02 08:22:32;;;;;;;8.00;1.30;;;;;;;;;;6253870;22;20042;-85
2021/08/02 08:24:59;;;;;;;5.75;0.90;;;;;;;;;;6278559;22;20015;-85
2021/08/02 08:27:26;;;;;;;4.32;0.82;;;;;;;;;;6255434;22;20031;-85
2021/08/02 08:29:52;;;;;;;6.07;1.05;;;;;;;;;;6288376;22;20008;-85
2021/08/02 08:32:19;;;;;;;12.68;1.20;;;;;;;;;;6283583;22;20213;-85
2021/08/02 08:34:48;;;;;;;4.88;0.90;;;;;;;;;;6252041;22;20020;-84
2021/08/02 08:37:14;;;;;;;5.60;1.00;;;;;;;;;;6271040;22;20244;-85
2021/08/02 08:39:41;;;;;;;8.80;1.35;;;;;;;;;;6269262;22;20274;-85
2021/08/02 08:42:08;;;;;;;6.57;1.20;;;;;;;;;;6265956;22;20031;-85
2021/08/02 08:44:35;;;;;;;6.85;1.15;;;;;;;;;;6244448;22;20024;-84
2021/08/02 08:47:01;;;;;;;5.28;0.93;;;;;;;;;;6272746;22;20038;-85
2021/08/02 08:49:34;;;;;;;8.60;1.23;;;;;;;;;;6243886;22;20030;-84
2021/08/02 08:52:04;;;;;;;5.35;1.23;;;;;;;;;;6279015;22;20062;-85
2021/08/02 08:54:33;;;;;;;6.50;0.95;;;;;;;;;;6253599;22;20024;-85
2021/08/02 08:57:01;;;;;;;5.43;1.00;;;;;;;;;;6251440;22;20019;-84
2021/08/02 08:59:29;;;;;;;7.00;1.00;;;;;;;;;;6247311;22;20031;-85
2021/08/02 09:02:02;;;;;;;4.88;0.95;;;;;;;;;;6251748;22;20098;-85
2021/08/02 09:04:32;;;;;;;5.45;0.85;;;;;;;;;;6247548;22;20198;-86
2021/08/02 09:07:00;;;;;;;5.13;0.80;;;;;;;;;;6271905;22;20235;-85
2021/08/02 09:09:30;;;;;;;8.32;1.27;;;;;;;;;;6273042;22;20082;-86
2021/08/02 09:12:03;;;;;;;4.07;1.15;;;;;;;;;;6269167;22;20074;-85
2021/08/02 09:14:30;;;;;;;7.32;1.10;;;;;;;;;;6272464;22;20095;-85
2021/08/02 09:17:00;;;;;;;7.93;1.15;;;;;;;;;;6273004;22;20081;-86
2021/08/02 09:19:42;;;;;;;6.10;1.27;;;;;;;;;;6276954;22;20358;-86
2021/08/02 09:22:09;;;;;;;6.68;1.08;;;;;;;;;;6290681;22;20016;-85
2021/08/02 09:24:35;;;;;;;3.75;1.00;;;;;;;;;;6263756;22;20025;-86
2021/08/02 09:27:03;;;;;;;5.97;0.88;;;;;;;;;;6279288;22;20280;-85
2021/08/02 09:29:33;;;;;;;5.30;0.98;;;;;;;;;;6255295;22;20015;-85
2021/08/02 09:32:09;;;;;;;5.82;1.13;;;;;;;;;;6290969;22;20100;-84
2021/08/02 09:34:42;;;;;;;;;;;;;;;;;;6262947;22;20008;-86
2021/08/02 09:37:21;;;;;;;4.18;0.90;;;;;;;;;;6261180;22;19973;-86
2021/08/02 09:39:48;;;;;;;11.05;1.60;;;;;;;;;;6255645;22;20106;-84
2021/08/02 09:42:21;;;;;;;7.72;1.35;;;;;;;;;;6248607;22;20127;-83
2021/08/02 09:45:11;;;;;;;3.70;1.20;;;;;;;;;;6250044;22;20031;-84
2021/08/02 09:47:40;;;;;;;3.92;1.65;;;;;;;;;;6246793;22;20137;-83
2021/08/02 09:50:30;;;;;;;5.22;1.48;;;;;;;;;;6274062;22;20039;-83
2021/08/02 09:52:57;;;;;;;3.97;1.13;;;;;;;;;;6269605;22;20043;-83
2021/08/02 09:55:24;;;;;;;3.83;1.30;;;;;;;;;;6248428;22;20024;-83
2021/08/02 09:58:03;;;;;;;4.57;1.27;;;;;;;;;;6246385;22;20020;-82
2021/08/02 10:00:39;;;;;;;9.43;1.52;;;;;;;;;;6247494;22;20427;-82
2021/08/02 10:03:05;;;;;;;2.95;1.15;;;;;;;;;;6245112;22;20216;-81
2021/08/02 10:05:35;;;;;;;3.72;1.10;;;;;;;;;;6251610;22;20027;-81
2021/08/02 10:08:06;;;;;;;2.83;1.13;;;;;;;;;;6243844;22;20024;-82
2021/08/02 10:10:37;;;;;;;2.45;1.20;;;;;;;;;;6245745;22;20458;-82
2021/08/02 10:13:07;;;;;;;3.25;1.08;;;;;;;;;;6254680;22;20035;-81
2021/08/02 10:15:34;;;;;;;3.08;0.85;;;;;;;;;;6258741;22;20128;-81
2021/08/02 10:18:05;;;;;;;3.00;1.10;;;;;;;;;;6256300;22;20027;-82
2021/08/02 10:20:34;;;;;;;3.67;1.00;;;;;;;;;;6258385;22;20036;-82
2021/08/02 10:23:04;;;;;;;3.67;1.00;;;;;;;;;;6285037;22;20058;-82
2021/08/02 10:25:35;;;;;;;2.88;1.08;;;;;;;;;;6251911;22;20079;-82
2021/08/02 10:28:09;;;;;;;4.88;1.67;;;;;;;;;;6274984;22;20031;-82
2021/08/02 10:30:37;;;;;;;3.88;1.00;;;;;;;;;;6247499;22;20118;-82
2021/08/02 10:33:05;;;;;;;5.90;1.00;;;;;;;;;;6245166;22;20027;-81
2021/08/02 10:35:42;;;;;;;5.82;1.50;;;;;;;;;;6274033;22;20405;-82
2021/08/02 10:38:15;;;;;;;4.93;0.95;;;;;;;;;;6246391;22;20046;-82
2021/08/02 10:41:02;;;;;;;6.47;1.10;;;;;;;;;;6272092;22;20062;-82
2021/08/02 10:43:28;;;;;;;8.63;0.80;;;;;;;;;;6263584;22;20385;-83
2021/08/02 10:45:56;;;;;;;5.13;1.17;;;;;;;;;;6245561;22;20038;-83
2021/08/02 10:48:24;;;;;;;3.60;0.70;;;;;;;;;;6248550;22;20070;-81
2021/08/02 10:50:51;;;;;;;2.20;0.47;;;;;;;;;;6269075;22;20413;-83
2021/08/02 10:53:24;;;;;;;4.18;0.75;;;;;;;;;;6270182;22;20305;-83
2021/08/02 10:55:52;;;;;;;2.33;0.85;;;;;;;;;;6272479;22;20369;-82
2021/08/02 10:58:29;;;;;;;1.55;0.47;;;;;;;;;;6272304;22;20223;-82
2021/08/02 11:00:57;;;;;;;3.42;0.60;;;;;;;;;;6275020;22;20139;-83
2021/08/02 11:03:34;;;;;;;2.97;0.63;;;;;;;;;;6247339;22;20152;-82
2021/08/02 11:06:17;;;;;;;4.10;0.65;;;;;;;;;;6249124;22;20030;-83
2021/08/02 11:08:46;;;;;;;6.43;1.08;;;;;;;;;;6246168;22;20373;-84
2021/08/02 11:11:24;;;;;;;2.35;0.57;;;;;;;;;;6245672;22;20447;-83
2021/08/02 11:14:03;;;;;;;1.90;0.57;;;;;;;;;;6250448;22;20335;-83
2021/08/02 11:16:56;;;;;;;2.97;0.63;;;;;;;;;;6249416;22;20105;-83
2021/08/02 11:19:28;;;;;;;3.40;1.27;;;;;;;;;;6232710;22;20035;-84
2021/08/02 11:22:02;;;;;;;1.60;0.57;;;;;;;;;;6260804;22;20024;-83
2021/08/02 11:24:30;;;;;;;3.45;0.88;;;;;;;;;;6291112;22;20026;-83
2021/08/02 11:26:58;;;;;;;2.85;1.00;;;;;;;;;;6258508;22;20016;-84
2021/08/02 11:29:26;;;;;;;4.28;0.57;;;;;;;;;;6256119;22;20286;-83
2021/08/02 11:32:13;;;;;;;5.13;1.23;;;;;;;;;;6255803;22;20031;-84
2021/08/02 11:34:44;;;;;;;4.80;0.85;;;;;;;;;;6290181;22;20015;-83
2021/08/02 11:37:13;;;;;;;5.30;0.80;;;;;;;;;;6251766;22;20034;-83
2021/08/02 11:39:40;;;;;;;2.83;0.70;;;;;;;;;;6254486;22;20035;-85
2021/08/02 11:42:08;;;;;;;5.60;1.05;;;;;;;;;;6280142;22;20071;-84
2021/08/02 11:44:36;;;;;;;1.35;0.52;;;;;;;;;;6275904;22;20203;-83
2021/08/02 11:47:04;;;;;;;4.60;0.95;;;;;;;;;;6274297;22;20070;-84
2021/08/02 11:49:32;;;;;;;2.92;0.70;;;;;;;;;;6245295;22;20455;-84
2021/08/02 11:51:59;;;;;;;5.22;0.73;;;;;;;;;;6245859;22;20424;-83
2021/08/02 11:54:26;;;;;;;3.78;0.57;;;;;;;;;;6248716;22;20224;-84
2021/08/02 11:56:53;;;;;;;3.15;0.70;;;;;;;;;;6274589;22;20028;-83
2021/08/02 11:59:20;;;;;;;3.35;0.73;;;;;;;;;;6244377;22;20023;-83
2021/08/02 12:01:48;;;;;;;2.05;0.70;;;;;;;;;;6246119;22;20027;-83
2021/08/02 12:04:19;;;;;;;6.60;0.90;;;;;;;;;;6246706;22;20341;-83
2021/08/02 12:07:07;;;;;;;2.75;0.70;;;;;;;;;;6273152;22;20457;-83
2021/08/02 12:09:42;;;;;;;3.88;0.68;;;;;;;;;;6235986;22;20089;-84
2021/08/02 12:12:19;;;;;;;5.37;1.40;;;;;;;;;;6245267;22;20043;-83
2021/08/02 12:14:47;;;;;;;6.70;1.52;;;;;;;;;;6267084;22;20030;-83
2021/08/02 12:17:14;;;;;;;5.95;1.80;;;;;;;;;;6270737;22;20024;-83
2021/08/02 12:19:50;;;;;;;7.22;2.08;;;;;;;;;;6271260;22;20022;-83
2021/08/02 12:22:20;;;;;;;7.65;1.65;;;;;;;;;;6233603;22;20028;-83
2021/08/02 12:24:51;;;;;;;6.13;1.73;;;;;;;;;;6246539;22;20215;-83
2021/08/02 12:27:21;;;;;;;3.70;1.33;;;;;;;;;;6269656;22;20065;-82
2021/08/02 12:30:04;;;;;;;4.07;1.33;;;;;;;;;;6267942;22;20401;-83
2021/08/02 12:32:37;;;;;;;6.45;1.30;;;;;;;;;;6244766;22;20107;-83
2021/08/02 12:35:05;;;;;;;5.55;1.13;;;;;;;;;;6244079;22;20283;-83
2021/08/02 12:37:34;;;;;;;6.50;1.40;;;;;;;;;;6278214;22;20216;-84
2021/08/02 12:40:07;;;;;;;3.70;1.00;;;;;;;;;;6288431;22;20019;-83
2021/08/02 12:42:34;;;;;;;3.45;1.02;;;;;;;;;;6255523;22;20023;-84
2021/08/02 12:45:03;;;;;;;5.30;0.90;;;;;;;;;;6243759;22;20034;-82
2021/08/02 12:47:45;;;;;;;6.35;0.90;;;;;;;;;;6248264;22;20023;-84
2021/08/02 12:50:13;;;;;;;3.08;0.82;;;;;;;;;;6240831;22;20108;-83
2021/08/02 12:52:40;;;;;;;4.90;1.10;;;;;;;;;;6266827;22;20043;-83
2021/08/02 12:55:09;;;;;;;7.90;1.10;;;;;;;;;;6269445;22;20031;-83
2021/08/02 12:57:38;;;;;;;6.88;1.58;;;;;;;;;;6244000;22;20024;-82
2021/08/02 13:00:11;;;;;;;5.53;0.65;;;;;;;;;;6270005;22;20028;-83
2021/08/02 13:02:38;;;;;;;3.72;0.85;;;;;;;;;;6243577;22;20094;-82
2021/08/02 13:05:08;;;;;;;3.53;0.82;;;;;;;;;;6240463;22;20024;-83
2021/08/02 13:07:36;;;;;;;3.38;0.88;;;;;;;;;;6266796;22;20027;-83
2021/08/02 13:10:06;;;;;;;3.33;0.70;;;;;;;;;;6240845;22;20027;-83
2021/08/02 13:12:33;;;;;;;3.40;0.75;;;;;;;;;;6243089;22;20024;-83
2021/08/02 13:15:01;;;;;;;3.35;0.80;;;;;;;;;;6247022;22;20192;-83
2021/08/02 13:17:28;;;;;;;3.20;0.77;;;;;;;;;;6265856;22;20057;-83
2021/08/02 13:19:57;;;;;;;3.40;0.60;;;;;;;;;;6266380;22;20122;-83
2021/08/02 13:22:33;;;;;;;1.35;0.43;;;;;;;;;;6241135;22;20098;-82
2021/08/02 13:27:46;;;;;;;1.10;0.47;;;;;;;;;;6267562;22;20524;-82
2021/08/02 13:30:13;;;;;;;1.55;0.50;;;;;;;;;;6241365;22;20032;-82
2021/08/02 13:33:01;;;;;;;1.58;0.50;;;;;;;;;;6276173;22;20051;-82
2021/08/02 13:35:27;;;;;;;2.88;0.40;;;;;;;;;;6231394;22;20124;-83
2021/08/02 13:37:54;;;;;;;2.13;0.50;;;;;;;;;;6238741;22;20086;-83
2021/08/02 13:40:22;;;;;;;2.35;0.70;;;;;;;;;;6239888;22;20027;-86
2021/08/02 13:43:07;;;;;;;4.40;0.98;;;;;;;;;;6245486;22;20028;-86
2021/08/02 13:45:37;;;;;;;2.97;0.77;;;;;;;;;;6247046;22;20193;-87
2021/08/02 13:48:05;;;;;;;1.15;0.40;;;;;;;;;;6246464;22;20127;-87
2021/08/02 13:50:32;;;;;;;1.23;0.40;;;;;;;;;;6243894;22;20035;-87
2021/08/02 13:52:58;;;;;;;3.75;0.75;;;;;;;;;;6270328;22;20027;-86
2021/08/02 13:55:26;;;;;;;2.15;0.60;;;;;;;;;;6246587;22;20181;-85
2021/08/02 13:57:57;;;;;;;3.45;0.65;;;;;;;;;;6246489;22;20035;-85
2021/08/02 14:00:24;;;;;;;2.17;0.73;;;;;;;;;;6274249;22;20059;-86
2021/08/02 14:02:51;;;;;;;4.70;0.73;;;;;;;;;;6272847;22;20028;-86
2021/08/02 14:05:19;;;;;;;4.20;1.08;;;;;;;;;;6272416;22;20168;-86
2021/08/02 14:07:45;;;;;;;3.75;0.90;;;;;;;;;;6272268;22;20022;-86
2021/08/02 14:10:12;;;;;;;2.85;0.52;;;;;;;;;;6244725;22;20376;-86
2021/08/02 14:12:39;;;;;;;3.88;0.57;;;;;;;;;;6245686;22;20019;-87
2021/08/02 14:15:07;;;;;;;2.90;0.50;;;;;;;;;;6271883;22;20077;-86
2021/08/02 14:17:53;;;;;;;1.88;0.70;;;;;;;;;;6244140;22;20123;-86
2021/08/02 14:20:21;;;;;;;2.85;0.40;;;;;;;;;;6261499;22;20034;-85
2021/08/02 14:22:47;;;;;;;6.43;0.70;;;;;;;;;;6275693;22;20019;-86
2021/08/02 14:25:16;;;;;;;5.57;0.70;;;;;;;;;;6240305;22;20027;-86
2021/08/02 14:27:43;;;;;;;2.83;0.47;;;;;;;;;;6261422;22;20012;-86
2021/08/02 14:30:11;;;;;;;4.15;0.70;;;;;;;;;;6261048;22;20071;-86
2021/08/02 14:32:42;;;;;;;0.93;0.50;;;;;;;;;;6277995;22;20198;-87
2021/08/02 14:35:11;;;;;;;3.60;0.55;;;;;;;;;;6271783;22;20035;-86
2021/08/02 14:37:42;;;;;;;4.60;0.70;;;;;;;;;;6261227;22;20196;-86
2021/08/02 14:40:25;;;;;;;4.35;0.47;;;;;;;;;;6254028;22;20024;-86
2021/08/02 14:42:53;;;;;;;3.28;0.70;;;;;;;;;;6243992;22;20031;-86
2021/08/02 14:45:20;;;;;;;2.55;0.45;;;;;;;;;;6271205;22;20032;-86
2021/08/02 14:47:47;;;;;;;4.32;0.68;;;;;;;;;;6272458;22;20058;-85
2021/08/02 14:50:14;;;;;;;4.13;0.70;;;;;;;;;;6270817;22;20122;-85
2021/08/02 14:52:42;;;;;;;1.98;0.50;;;;;;;;;;6239422;22;20035;-85
2021/08/02 14:55:11;;;;;;;4.28;0.60;;;;;;;;;;6240359;22;20109;-85
2021/08/02 14:57:43;;;;;;;3.45;0.55;;;;;;;;;;6246182;22;20039;-85